Time;durP1;ratioP1;P1;durP2;ratioP2;P2;SDS_P1;SDS_P2;PMS_P1;PMS_P2;Temp;Humidity;BMP_temperature;BMP_pressure;BME280_temperature;BME280_humidity;BME280_pressure;Samples;Min_cycle;Max_cycle;Signal;HPM_P1;HPM_P2
2022/01/21 00:02:23;;;;;;;2.67;1.40;;;0.50;99.90;;;;;;5054478;28;20188;-65
2022/01/21 00:04:49;;;;;;;5.20;1.90;;;0.40;99.90;;;;;;5053836;28;20186;-65
2022/01/21 00:07:14;;;;;;;4.63;1.60;;;0.40;99.90;;;;;;5054588;28;20243;-64
2022/01/21 00:09:40;;;;;;;4.87;1.77;;;0.40;99.90;;;;;;5053777;28;20170;-64
2022/01/21 00:12:06;;;;;;;6.60;1.47;;;0.40;99.90;;;;;;5054195;28;20222;-64
2022/01/21 00:14:32;;;;;;;3.27;1.83;;;0.30;99.90;;;;;;5054465;28;20588;-65
2022/01/21 00:16:58;;;;;;;3.70;1.37;;;0.30;99.90;;;;;;5054542;28;20171;-65
2022/01/21 00:19:25;;;;;;;6.90;1.80;;;0.20;99.90;;;;;;5053898;28;20200;-67
2022/01/21 00:30:15;;;;;;;7.20;1.67;;;0.20;99.90;;;;;;5054076;28;20222;-64
2022/01/21 00:32:44;;;;;;;5.40;1.70;;;0.20;99.90;;;;;;5054220;28;20162;-64
2022/01/21 00:35:10;;;;;;;5.07;1.60;;;0.20;99.90;;;;;;5053807;28;20237;-64
2022/01/21 00:37:37;;;;;;;4.43;1.40;;;0.20;99.90;;;;;;5054401;28;20225;-64
2022/01/21 00:40:04;;;;;;;6.67;1.97;;;0.20;99.90;;;;;;5053278;28;20697;-66
2022/01/21 00:44:59;;;;;;;5.87;1.40;;;0.20;99.90;;;;;;5053885;28;20164;-64
2022/01/21 00:47:26;;;;;;;3.67;1.77;;;0.10;99.90;;;;;;5053704;28;20180;-65
2022/01/21 00:49:52;;;;;;;4.03;1.30;;;0.10;99.90;;;;;;5053814;28;20178;-64
2022/01/21 00:52:18;;;;;;;3.77;1.63;;;0.10;99.90;;;;;;5054299;28;20165;-64
2022/01/21 00:54:43;;;;;;;7.07;1.77;;;0.20;99.90;;;;;;5052731;28;20178;-64
2022/01/21 00:57:09;;;;;;;4.83;1.23;;;0.20;99.90;;;;;;5053438;28;20243;-64
2022/01/21 00:59:35;;;;;;;3.27;1.43;;;0.20;99.90;;;;;;5053338;28;20642;-64
2022/01/21 01:02:01;;;;;;;5.43;1.93;;;0.20;99.90;;;;;;5053273;28;20172;-64
2022/01/21 01:04:27;;;;;;;5.73;1.50;;;0.10;99.90;;;;;;5053029;28;20503;-63
2022/01/21 01:06:52;;;;;;;2.53;1.33;;;0.10;99.90;;;;;;5046101;28;20156;-64
2022/01/21 01:09:18;;;;;;;4.87;1.90;;;0.00;99.90;;;;;;5033394;28;20234;-64
2022/01/21 01:11:54;;;;;;;3.30;1.57;;;0.00;99.90;;;;;;5065668;28;20179;-64
2022/01/21 01:19:58;;;;;;;3.80;1.37;;;0.10;99.90;;;;;;5033444;28;20219;-63
2022/01/21 01:22:33;;;;;;;3.23;1.23;;;0.10;99.90;;;;;;5033120;28;20307;-64
2022/01/21 01:27:44;;;;;;;6.13;1.80;;;-0.10;99.90;;;;;;5033099;28;20594;-65
2022/01/21 01:30:15;;;;;;;5.17;1.53;;;0.10;99.90;;;;;;5031783;28;20610;-64
2022/01/21 01:32:42;;;;;;;2.63;1.37;;;0.10;99.90;;;;;;5057791;28;20163;-64
2022/01/21 01:35:10;;;;;;;5.80;1.60;;;0.10;99.90;;;;;;5059068;28;20180;-65
2022/01/21 01:37:58;;;;;;;3.10;1.63;;;0.10;99.90;;;;;;5057879;28;20210;-66
2022/01/21 01:40:28;;;;;;;3.67;1.50;;;0.10;99.90;;;;;;5057475;28;20590;-64
2022/01/21 01:51:11;;;;;;;2.33;1.40;;;0.10;99.90;;;;;;5057120;28;20607;-64
2022/01/21 01:53:41;;;;;;;6.53;1.57;;;0.20;99.90;;;;;;5057936;28;20161;-64
2022/01/21 01:56:09;;;;;;;3.23;1.67;;;0.10;99.90;;;;;;5056012;28;20188;-64
2022/01/21 01:58:40;;;;;;;5.90;1.70;;;0.10;99.90;;;;;;5042745;28;20200;-64
2022/01/21 02:01:06;;;;;;;6.80;1.50;;;0.10;99.90;;;;;;5037324;28;20246;-65
2022/01/21 02:03:33;;;;;;;4.93;1.67;;;0.00;99.90;;;;;;5036773;28;20514;-64
2022/01/21 02:06:00;;;;;;;2.57;1.47;;;0.00;99.90;;;;;;5036834;28;20174;-64
2022/01/21 02:08:27;;;;;;;8.63;1.70;;;0.00;99.90;;;;;;5036702;28;20672;-64
2022/01/21 02:10:52;;;;;;;4.13;1.80;;;0.00;99.90;;;;;;5036468;28;20168;-64
2022/01/21 02:13:22;;;;;;;10.17;1.93;;;0.00;99.90;;;;;;5036592;28;20170;-64
2022/01/21 02:16:10;;;;;;;6.63;1.87;;;0.00;99.90;;;;;;5031867;28;20252;-65
2022/01/21 02:21:36;;;;;;;2.87;1.60;;;0.00;99.90;;;;;;5036511;28;20714;-64
2022/01/21 02:24:06;;;;;;;8.43;2.07;;;0.00;99.90;;;;;;5036975;28;20587;-64
2022/01/21 02:26:33;;;;;;;3.27;1.40;;;0.00;99.90;;;;;;5036324;28;20177;-64
2022/01/21 02:29:00;;;;;;;4.70;1.40;;;0.00;99.90;;;;;;5035014;28;20194;-64
2022/01/21 02:31:26;;;;;;;2.70;1.13;;;0.10;99.90;;;;;;5037395;28;20287;-65
2022/01/21 02:33:52;;;;;;;5.80;1.37;;;0.20;99.90;;;;;;5056217;28;20175;-64
2022/01/21 02:36:18;;;;;;;4.20;1.90;;;0.10;99.90;;;;;;5056083;28;20229;-63
2022/01/21 02:38:43;;;;;;;4.90;1.50;;;0.20;99.90;;;;;;5056955;28;20227;-64
2022/01/21 02:41:09;;;;;;;5.07;1.63;;;0.20;99.90;;;;;;5054964;28;20584;-64
2022/01/21 02:43:35;;;;;;;3.60;1.30;;;0.20;99.90;;;;;;5059268;28;20164;-65
2022/01/21 02:46:05;;;;;;;5.90;1.53;;;0.20;99.90;;;;;;5055740;28;20173;-65
2022/01/21 02:48:35;;;;;;;5.63;1.70;;;0.20;99.90;;;;;;5056189;28;20524;-66
2022/01/21 02:51:01;;;;;;;4.83;1.57;;;0.20;99.90;;;;;;5035205;28;20183;-66
2022/01/21 02:53:40;;;;;;;6.87;1.63;;;0.20;99.90;;;;;;5036271;28;20474;-64
2022/01/21 02:56:07;;;;;;;5.53;1.67;;;0.20;99.90;;;;;;5036214;28;20304;-65
2022/01/21 02:58:33;;;;;;;7.70;1.57;;;0.10;99.90;;;;;;5035842;28;20664;-65
2022/01/21 03:00:59;;;;;;;2.17;1.40;;;0.20;99.90;;;;;;5035955;28;20243;-64
2022/01/21 03:03:25;;;;;;;5.63;1.57;;;0.10;99.90;;;;;;5035590;28;20300;-64
2022/01/21 03:05:50;;;;;;;5.07;1.43;;;0.10;99.90;;;;;;5036206;28;20168;-65
2022/01/21 03:08:16;;;;;;;5.67;1.50;;;0.10;99.90;;;;;;5035697;28;20705;-64
2022/01/21 03:10:42;;;;;;;5.33;1.40;;;0.10;99.90;;;;;;5036187;28;20200;-64
2022/01/21 03:13:08;;;;;;;5.97;1.67;;;0.00;99.90;;;;;;5035206;28;20220;-64
2022/01/21 03:15:33;;;;;;;3.43;1.43;;;0.00;99.90;;;;;;5035567;28;20165;-68
2022/01/21 03:17:59;;;;;;;3.90;1.63;;;0.00;99.90;;;;;;5035071;28;20257;-64
2022/01/21 03:20:24;;;;;;;2.17;1.23;;;-0.20;99.90;;;;;;5035227;28;20231;-64
2022/01/21 03:22:50;;;;;;;6.43;1.50;;;-0.10;99.90;;;;;;5031638;28;20272;-64
2022/01/21 03:25:16;;;;;;;3.40;1.27;;;-0.20;99.90;;;;;;5040295;28;20249;-64
2022/01/21 03:27:41;;;;;;;5.20;1.63;;;-0.20;99.90;;;;;;5041123;28;20181;-64
2022/01/21 03:30:09;;;;;;;3.73;1.20;;;-0.30;99.90;;;;;;5035044;28;20598;-64
2022/01/21 03:32:35;;;;;;;3.30;1.40;;;-0.30;99.90;;;;;;5035188;28;20165;-64
2022/01/21 03:35:00;;;;;;;3.80;2.13;;;-0.30;99.90;;;;;;5035044;28;20628;-64
2022/01/21 03:37:26;;;;;;;10.50;1.60;;;-0.20;99.90;;;;;;5034915;28;20181;-64
2022/01/21 03:39:52;;;;;;;2.90;1.27;;;-0.30;99.90;;;;;;5034993;28;20209;-64
2022/01/21 03:42:17;;;;;;;9.37;1.60;;;-0.30;99.90;;;;;;5028152;28;20190;-64
2022/01/21 03:44:43;;;;;;;3.00;1.33;;;-0.30;99.90;;;;;;5034941;28;20167;-65
2022/01/21 03:47:09;;;;;;;5.07;1.50;;;-0.30;99.90;;;;;;5034713;28;20159;-65
2022/01/21 03:49:40;;;;;;;6.10;1.80;;;-0.30;99.90;;;;;;5028095;28;20219;-65
2022/01/21 03:52:07;;;;;;;7.17;1.40;;;-0.40;99.90;;;;;;5034491;28;20230;-65
2022/01/21 03:54:35;;;;;;;1.53;1.20;;;-0.30;99.90;;;;;;5034242;28;20180;-65
2022/01/21 03:57:02;;;;;;;3.70;1.53;;;-0.50;99.90;;;;;;5035041;28;20164;-64
2022/01/21 03:59:27;;;;;;;6.50;1.53;;;-0.40;99.90;;;;;;5034908;28;20278;-64
2022/01/21 04:01:53;;;;;;;4.47;1.37;;;-0.30;99.90;;;;;;5034853;28;20178;-64
2022/01/21 04:04:18;;;;;;;2.40;1.23;;;-0.50;99.90;;;;;;5035807;28;20591;-64
2022/01/21 04:06:44;;;;;;;4.13;1.53;;;-0.50;99.90;;;;;;5035094;28;20173;-65
2022/01/21 04:09:10;;;;;;;5.90;1.67;;;-0.50;99.90;;;;;;5043266;28;20173;-64
2022/01/21 04:11:35;;;;;;;12.03;1.80;;;-0.40;99.90;;;;;;5036553;28;20161;-65
2022/01/21 04:14:01;;;;;;;6.53;2.63;;;-0.50;99.90;;;;;;5042538;28;20536;-65
2022/01/21 04:16:26;;;;;;;4.30;1.57;;;-0.50;99.90;;;;;;5054479;28;20171;-65
2022/01/21 04:18:52;;;;;;;2.23;1.30;;;-0.50;99.90;;;;;;5054379;28;20195;-65
2022/01/21 04:21:18;;;;;;;5.63;2.10;;;-0.50;99.90;;;;;;5057387;28;20618;-65
2022/01/21 04:23:43;;;;;;;4.03;1.50;;;-0.50;99.90;;;;;;5040075;28;20210;-65
2022/01/21 04:26:09;;;;;;;2.70;1.43;;;-0.50;99.90;;;;;;5033804;28;20274;-65
2022/01/21 04:28:35;;;;;;;7.33;2.00;;;-0.50;99.90;;;;;;5035459;28;20260;-64
2022/01/21 04:31:00;;;;;;;7.03;1.67;;;-0.60;99.90;;;;;;5054547;28;20164;-65
2022/01/21 04:33:26;;;;;;;6.43;2.23;;;-0.60;99.90;;;;;;5037363;28;20191;-65
2022/01/21 04:35:52;;;;;;;4.20;1.63;;;-0.40;99.90;;;;;;5032609;28;20493;-65
2022/01/21 04:38:21;;;;;;;9.40;1.90;;;-0.50;99.90;;;;;;5030023;28;20176;-64
2022/01/21 04:40:55;;;;;;;6.70;1.43;;;-0.50;99.90;;;;;;5034489;28;20232;-65
2022/01/21 04:48:50;;;;;;;8.73;1.60;;;-0.60;99.90;;;;;;5034166;28;20175;-65
2022/01/21 04:51:19;;;;;;;5.20;1.90;;;-0.50;99.90;;;;;;5034130;28;20173;-65
2022/01/21 04:53:46;;;;;;;2.73;1.20;;;-0.50;99.90;;;;;;5029299;28;20330;-64
2022/01/21 04:56:13;;;;;;;5.63;1.50;;;-0.60;99.90;;;;;;5034638;28;20496;-64
2022/01/21 04:58:39;;;;;;;3.37;1.57;;;-0.70;99.90;;;;;;5034296;28;20257;-65
2022/01/21 05:01:06;;;;;;;5.23;1.30;;;-0.50;99.90;;;;;;5033744;28;20161;-65
2022/01/21 05:03:33;;;;;;;5.23;1.70;;;-0.60;99.90;;;;;;5033679;28;20608;-65
2022/01/21 05:06:00;;;;;;;3.73;1.20;;;-0.60;99.90;;;;;;5033774;28;20165;-65
2022/01/21 05:08:32;;;;;;;5.43;2.00;;;-0.60;99.90;;;;;;5034080;28;20207;-64
2022/01/21 05:10:57;;;;;;;2.37;1.20;;;-0.70;99.90;;;;;;5034534;28;20593;-65
2022/01/21 05:13:26;;;;;;;2.07;1.30;;;-0.60;99.90;;;;;;5038367;28;20183;-65
2022/01/21 05:18:24;;;;;;;2.20;1.30;;;-0.70;99.90;;;;;;5048065;28;20190;-65
2022/01/21 05:20:50;;;;;;;4.43;1.70;;;-0.80;99.90;;;;;;5037573;28;20211;-64
2022/01/21 05:23:16;;;;;;;3.83;1.30;;;-0.70;99.90;;;;;;5033180;28;20170;-65
2022/01/21 05:25:41;;;;;;;5.37;1.80;;;-0.70;99.90;;;;;;5033918;28;20608;-64
2022/01/21 05:28:07;;;;;;;6.20;1.50;;;-0.80;99.90;;;;;;5028035;28;20557;-65
2022/01/21 05:30:33;;;;;;;5.43;1.43;;;-0.70;99.90;;;;;;5033670;28;20224;-65
2022/01/21 05:32:59;;;;;;;5.27;1.80;;;-0.70;99.90;;;;;;5026580;28;20180;-65
2022/01/21 05:35:25;;;;;;;4.07;1.57;;;-0.80;99.90;;;;;;5031520;28;20751;-64
2022/01/21 05:37:51;;;;;;;10.57;2.00;;;-0.80;99.90;;;;;;5044467;28;20230;-65
2022/01/21 05:40:18;;;;;;;3.97;1.47;;;-0.80;99.90;;;;;;5047556;28;20211;-65
2022/01/21 05:42:44;;;;;;;3.83;1.47;;;-0.80;99.90;;;;;;5038123;28;20195;-66
2022/01/21 05:47:54;;;;;;;4.13;1.30;;;-0.80;99.90;;;;;;5028071;28;20258;-67
2022/01/21 05:50:20;;;;;;;7.07;2.03;;;-0.80;99.90;;;;;;5030502;28;20628;-65
2022/01/21 05:52:47;;;;;;;7.70;1.90;;;-0.80;99.90;;;;;;5031877;28;20187;-66
2022/01/21 05:55:14;;;;;;;4.20;1.60;;;-0.80;99.90;;;;;;5036425;28;20182;-66
2022/01/21 05:57:40;;;;;;;7.87;1.97;;;-0.80;99.90;;;;;;5036628;28;21179;-65
2022/01/21 06:00:06;;;;;;;6.60;1.90;;;-0.80;99.90;;;;;;5033728;28;20240;-65
2022/01/21 06:02:32;;;;;;;5.77;1.63;;;-0.80;99.90;;;;;;5036713;28;20619;-66
2022/01/21 06:04:57;;;;;;;6.87;1.73;;;-0.80;99.90;;;;;;5039781;28;20276;-66
2022/01/21 06:07:23;;;;;;;7.17;1.77;;;-0.80;99.90;;;;;;5039741;28;20559;-65
2022/01/21 06:09:49;;;;;;;7.33;1.83;;;-0.90;99.90;;;;;;5038006;28;20271;-65
2022/01/21 06:12:14;;;;;;;7.10;1.77;;;-0.90;99.90;;;;;;5038021;28;20184;-65
2022/01/21 06:14:40;;;;;;;3.50;1.67;;;-0.90;99.90;;;;;;5038790;28;20213;-65
2022/01/21 06:17:06;;;;;;;6.60;1.90;;;-0.80;99.90;;;;;;5043569;28;20186;-66
2022/01/21 06:19:32;;;;;;;3.83;1.73;;;-0.80;99.90;;;;;;5045808;28;20214;-68
2022/01/21 06:21:57;;;;;;;4.83;2.30;;;-0.90;99.90;;;;;;5039200;28;20212;-65
2022/01/21 06:24:23;;;;;;;4.63;1.67;;;-0.90;99.90;;;;;;5041034;28;20188;-66
2022/01/21 06:26:48;;;;;;;3.77;2.10;;;-0.90;99.90;;;;;;5040894;28;20181;-65
2022/01/21 06:29:14;;;;;;;5.77;1.90;;;-0.90;99.90;;;;;;5043295;28;20598;-66
2022/01/21 06:31:40;;;;;;;7.37;2.23;;;-0.90;99.90;;;;;;5038681;28;20323;-66
2022/01/21 06:34:05;;;;;;;6.40;2.03;;;-0.80;99.90;;;;;;5037884;28;20196;-64
2022/01/21 06:36:31;;;;;;;5.00;1.90;;;-0.90;99.90;;;;;;5039102;28;20236;-66
2022/01/21 06:38:57;;;;;;;5.43;1.60;;;-0.80;99.90;;;;;;5044408;28;20206;-65
2022/01/21 06:41:22;;;;;;;5.90;1.77;;;-0.80;99.90;;;;;;5041094;28;20189;-65
2022/01/21 06:43:48;;;;;;;5.37;1.80;;;-0.70;99.90;;;;;;5044463;28;20530;-66
2022/01/21 06:46:14;;;;;;;3.83;1.70;;;-0.70;99.90;;;;;;5038431;28;20185;-67
2022/01/21 06:48:40;;;;;;;5.40;2.00;;;-0.70;99.90;;;;;;5042439;28;20227;-66
2022/01/21 06:51:06;;;;;;;3.90;1.63;;;-0.70;99.90;;;;;;5038728;28;20862;-66
2022/01/21 06:53:31;;;;;;;5.33;2.00;;;-0.70;99.90;;;;;;5041126;28;20177;-67
2022/01/21 06:55:57;;;;;;;7.40;2.93;;;-0.70;99.90;;;;;;5042139;28;20644;-66
2022/01/21 06:58:23;;;;;;;4.47;1.90;;;-0.70;99.90;;;;;;5041980;28;20184;-65
2022/01/21 07:00:48;;;;;;;11.97;2.03;;;-0.70;99.90;;;;;;5047291;28;20209;-65
2022/01/21 07:03:14;;;;;;;4.67;1.93;;;-0.70;99.90;;;;;;5035858;28;20197;-66
2022/01/21 07:05:40;;;;;;;10.03;2.07;;;-0.70;99.90;;;;;;5039846;28;20196;-65
2022/01/21 07:08:06;;;;;;;4.53;2.00;;;-0.70;99.90;;;;;;5043128;28;20549;-70
2022/01/21 07:10:32;;;;;;;8.93;2.10;;;-0.80;99.90;;;;;;5043787;28;20181;-66
2022/01/21 07:12:58;;;;;;;7.07;1.90;;;-0.70;99.90;;;;;;5045572;28;25050;-66
2022/01/21 07:15:24;;;;;;;3.03;1.70;;;-0.70;99.90;;;;;;5042204;28;20211;-66
2022/01/21 07:17:53;;;;;;;6.63;2.03;;;-0.70;99.90;;;;;;5038694;28;20592;-69
2022/01/21 07:20:22;;;;;;;7.67;2.07;;;-0.70;99.90;;;;;;5039638;28;20243;-65
2022/01/21 07:22:48;;;;;;;4.90;2.20;;;-0.70;99.90;;;;;;5037871;28;20189;-66
2022/01/21 07:25:14;;;;;;;6.30;2.00;;;-0.50;99.90;;;;;;5039134;28;20691;-66
2022/01/21 07:27:41;;;;;;;3.23;1.43;;;-0.70;99.90;;;;;;5040794;28;20187;-65
2022/01/21 07:30:08;;;;;;;5.93;1.90;;;-0.70;99.90;;;;;;5037061;28;20272;-66
2022/01/21 07:32:33;;;;;;;5.43;1.90;;;-0.70;99.90;;;;;;5039075;28;20199;-66
2022/01/21 07:34:59;;;;;;;10.07;1.90;;;-0.70;99.90;;;;;;5041749;28;20177;-67
2022/01/21 07:37:25;;;;;;;3.23;1.73;;;-0.70;99.90;;;;;;5038612;28;20205;-66
2022/01/21 07:39:51;;;;;;;7.03;2.37;;;-0.60;99.90;;;;;;5039139;28;20207;-67
2022/01/21 07:42:16;;;;;;;6.70;1.90;;;-0.60;99.90;;;;;;5040594;28;20294;-66
2022/01/21 07:44:43;;;;;;;6.53;1.80;;;-0.50;99.90;;;;;;5036214;28;20200;-68
2022/01/21 07:47:09;;;;;;;8.87;2.00;;;-0.50;99.90;;;;;;5035349;28;20636;-67
2022/01/21 07:49:35;;;;;;;6.03;1.93;;;-0.50;99.90;;;;;;5037700;28;20187;-66
2022/01/21 07:52:01;;;;;;;7.93;2.60;;;-0.50;99.90;;;;;;5033941;28;20212;-66
2022/01/21 07:54:27;;;;;;;7.83;2.30;;;-0.40;99.90;;;;;;5037222;28;20310;-65
2022/01/21 07:56:53;;;;;;;7.17;2.23;;;-0.30;99.90;;;;;;5072096;28;20185;-66
2022/01/21 07:59:18;;;;;;;5.87;1.80;;;-0.30;99.90;;;;;;5041122;28;20289;-67
2022/01/21 08:01:44;;;;;;;4.27;1.70;;;-0.30;99.90;;;;;;5037731;28;20319;-65
2022/01/21 08:04:11;;;;;;;5.07;1.83;;;-0.30;99.90;;;;;;5043058;28;20344;-66
2022/01/21 08:06:37;;;;;;;7.57;1.93;;;-0.30;99.90;;;;;;5046387;28;20184;-64
2022/01/21 08:09:04;;;;;;;4.87;1.80;;;-0.30;99.90;;;;;;5038486;28;20201;-65
2022/01/21 08:11:30;;;;;;;7.83;2.10;;;-0.30;99.90;;;;;;5040457;28;20203;-65
2022/01/21 08:13:56;;;;;;;5.23;1.73;;;-0.30;99.90;;;;;;5040282;28;25743;-64
2022/01/21 08:16:21;;;;;;;6.70;2.20;;;-0.20;99.90;;;;;;5041487;28;20277;-66
2022/01/21 08:18:49;;;;;;;8.53;1.63;;;-0.20;99.90;;;;;;5037314;28;20199;-66
2022/01/21 08:21:19;;;;;;;8.13;2.13;;;-0.20;99.90;;;;;;5042988;28;20180;-67
2022/01/21 08:23:50;;;;;;;4.50;2.30;;;-0.20;99.90;;;;;;5035282;28;20176;-65
2022/01/21 08:26:20;;;;;;;9.07;2.30;;;-0.10;99.90;;;;;;5043647;28;20518;-65
2022/01/21 08:28:47;;;;;;;7.43;2.60;;;0.00;99.90;;;;;;5045003;28;20188;-66
2022/01/21 08:31:13;;;;;;;9.57;2.37;;;0.20;99.90;;;;;;5044064;28;20199;-67
2022/01/21 08:33:41;;;;;;;12.40;2.93;;;0.10;99.90;;;;;;5042091;28;20189;-64
2022/01/21 08:36:07;;;;;;;9.67;2.87;;;0.20;99.90;;;;;;5046337;28;20220;-68
2022/01/21 08:38:34;;;;;;;6.53;2.30;;;0.30;99.90;;;;;;5045317;28;20288;-73
2022/01/21 08:41:01;;;;;;;6.13;2.17;;;0.50;99.90;;;;;;5041083;28;20249;-66
2022/01/21 08:43:27;;;;;;;4.30;1.97;;;0.40;99.90;;;;;;5040960;28;20778;-67
2022/01/21 08:45:53;;;;;;;8.10;2.40;;;0.40;99.90;;;;;;5071164;28;20241;-66
2022/01/21 08:48:18;;;;;;;6.67;2.43;;;0.40;99.90;;;;;;5043291;28;20195;-66
2022/01/21 08:50:44;;;;;;;9.53;2.70;;;0.40;99.90;;;;;;5039086;28;20217;-66
2022/01/21 08:53:36;;;;;;;5.67;2.27;;;0.50;99.90;;;;;;5040454;28;20195;-67
2022/01/21 08:55:57;;;;;;;8.53;2.40;;;0.50;99.90;;;;;;5042411;28;20323;-70
2022/01/21 08:58:23;;;;;;;10.33;3.13;;;0.60;99.90;;;;;;5039600;28;20176;-66
2022/01/21 09:00:49;;;;;;;7.80;2.73;;;0.60;99.90;;;;;;5043111;28;20275;-66
2022/01/21 09:03:16;;;;;;;8.43;2.70;;;0.70;99.90;;;;;;5037971;28;20240;-65
2022/01/21 09:05:48;;;;;;;9.97;3.10;;;0.70;99.90;;;;;;5037901;28;20182;-68
2022/01/21 09:08:19;;;;;;;13.07;3.40;;;0.70;99.90;;;;;;5039355;28;20180;-66
2022/01/21 09:10:45;;;;;;;6.90;2.17;;;0.90;99.90;;;;;;5039770;28;20498;-65
2022/01/21 09:13:11;;;;;;;8.70;2.63;;;0.90;99.90;;;;;;5040186;28;20204;-65
2022/01/21 09:15:38;;;;;;;7.60;3.00;;;1.00;99.90;;;;;;5043686;28;20522;-65
2022/01/21 09:18:05;;;;;;;7.07;2.30;;;1.00;99.90;;;;;;5038074;28;20249;-65
2022/01/21 09:20:33;;;;;;;11.00;2.47;;;1.00;99.90;;;;;;5039075;28;20204;-65
2022/01/21 09:22:59;;;;;;;5.97;2.40;;;1.00;99.90;;;;;;5039400;28;20190;-66
2022/01/21 09:25:28;;;;;;;6.97;2.80;;;1.00;99.90;;;;;;5039359;28;20201;-65
2022/01/21 09:27:54;;;;;;;6.87;2.20;;;1.10;99.90;;;;;;5040786;28;20603;-65
2022/01/21 09:30:20;;;;;;;9.63;2.17;;;1.20;99.90;;;;;;5040938;28;20227;-66
2022/01/21 09:32:45;;;;;;;5.90;2.20;;;1.30;99.90;;;;;;5045361;28;20255;-65
2022/01/21 09:35:12;;;;;;;7.20;2.33;;;1.20;99.90;;;;;;5040209;28;20254;-66
2022/01/21 09:37:38;;;;;;;13.53;2.90;;;1.20;99.90;;;;;;5040733;28;20180;-65
2022/01/21 09:40:13;;;;;;;11.97;2.63;;;1.30;99.90;;;;;;5043658;28;20269;-65
2022/01/21 09:42:39;;;;;;;7.27;2.33;;;1.30;99.90;;;;;;5040930;28;20184;-64
2022/01/21 09:45:11;;;;;;;9.40;2.20;;;1.40;99.90;;;;;;5040245;28;20188;-65
2022/01/21 09:47:47;;;;;;;7.33;2.57;;;1.50;99.90;;;;;;5040158;28;20259;-67
2022/01/21 09:50:18;;;;;;;6.47;2.83;;;1.60;99.90;;;;;;5041430;28;20183;-66
2022/01/21 09:52:53;;;;;;;6.47;2.00;;;1.60;99.90;;;;;;5042939;28;20314;-65
2022/01/21 09:55:21;;;;;;;7.30;2.33;;;1.60;99.90;;;;;;5050925;28;20176;-68
2022/01/21 09:57:53;;;;;;;13.80;2.47;;;1.60;99.90;;;;;;5046685;28;20180;-65
2022/01/21 10:00:21;;;;;;;5.43;2.60;;;1.70;99.90;;;;;;5044086;28;20216;-66
2022/01/21 10:02:50;;;;;;;11.27;2.83;;;1.60;99.90;;;;;;5045275;28;20199;-66
2022/01/21 10:05:16;;;;;;;9.37;2.73;;;1.60;99.90;;;;;;5047011;28;20192;-68
2022/01/21 10:07:45;;;;;;;8.00;2.47;;;1.60;99.90;;;;;;5048126;28;20191;-70
2022/01/21 10:10:11;;;;;;;8.00;2.47;;;1.50;99.90;;;;;;5043293;28;20192;-65
2022/01/21 10:12:39;;;;;;;7.87;2.67;;;1.50;99.90;;;;;;5045992;28;20181;-66
2022/01/21 10:15:07;;;;;;;10.47;2.77;;;1.50;99.90;;;;;;5044617;28;20648;-65
2022/01/21 10:17:34;;;;;;;14.70;2.80;;;1.60;99.90;;;;;;5041788;28;20655;-65
2022/01/21 10:20:13;;;;;;;15.23;3.40;;;1.60;99.90;;;;;;5043923;28;20208;-65
2022/01/21 10:22:54;;;;;;;9.77;3.13;;;1.40;99.90;;;;;;5040982;28;20184;-66
2022/01/21 10:25:20;;;;;;;6.63;2.87;;;1.30;99.90;;;;;;5041058;28;20180;-64
2022/01/21 10:27:46;;;;;;;5.23;2.40;;;1.40;99.90;;;;;;5043217;28;20276;-64
2022/01/21 10:30:20;;;;;;;7.63;3.10;;;1.40;99.90;;;;;;5040816;28;20464;-66
2022/01/21 10:32:45;;;;;;;9.93;2.90;;;1.30;99.90;;;;;;5043973;28;20188;-65
2022/01/21 10:35:32;;;;;;;14.37;3.30;;;1.20;99.90;;;;;;5041311;28;20292;-65
2022/01/21 10:38:29;;;;;;;5.33;2.73;;;1.10;99.90;;;;;;5042993;28;20200;-65
2022/01/21 10:41:11;;;;;;;14.40;3.10;;;1.20;99.90;;;;;;5042723;28;20612;-64
2022/01/21 10:43:40;;;;;;;7.17;2.90;;;1.00;99.90;;;;;;5041465;28;20210;-66
2022/01/21 10:46:07;;;;;;;8.40;3.13;;;1.00;99.90;;;;;;5040745;28;20176;-67
2022/01/21 10:49:01;;;;;;;10.63;3.30;;;1.00;99.90;;;;;;5041253;28;20199;-68
2022/01/21 10:51:30;;;;;;;8.43;2.90;;;1.00;99.90;;;;;;5044055;28;20175;-65
2022/01/21 10:53:57;;;;;;;6.37;3.63;;;1.20;99.90;;;;;;5044890;28;20177;-65
2022/01/21 10:56:25;;;;;;;11.03;3.73;;;1.30;99.90;;;;;;5042247;28;20211;-65
2022/01/21 10:58:53;;;;;;;9.97;3.37;;;1.30;99.90;;;;;;5042141;28;20186;-65
2022/01/21 11:01:22;;;;;;;10.60;3.20;;;1.40;99.90;;;;;;5043703;28;20199;-65
2022/01/21 11:04:07;;;;;;;14.07;3.67;;;1.30;99.90;;;;;;5036454;28;20173;-64
2022/01/21 11:06:45;;;;;;;10.70;3.90;;;1.20;99.90;;;;;;5035962;28;20185;-65
2022/01/21 11:09:22;;;;;;;8.93;3.33;;;1.30;99.90;;;;;;5043046;28;20176;-64
2022/01/21 11:12:06;;;;;;;8.83;3.30;;;1.30;99.90;;;;;;5038417;28;20188;-72
2022/01/21 11:14:34;;;;;;;8.63;3.77;;;1.30;99.90;;;;;;5033738;28;20195;-64
2022/01/21 11:17:15;;;;;;;5.67;3.23;;;1.40;99.90;;;;;;5037724;28;20192;-65
2022/01/21 11:19:59;;;;;;;9.23;3.90;;;1.50;99.90;;;;;;5047000;28;20211;-64
2022/01/21 11:22:25;;;;;;;8.57;3.47;;;1.60;99.90;;;;;;5039979;28;20192;-65
2022/01/21 11:24:51;;;;;;;13.03;3.57;;;1.80;99.90;;;;;;5041274;28;20176;-65
2022/01/21 11:27:17;;;;;;;11.20;3.33;;;1.70;99.90;;;;;;5036160;28;20192;-65
2022/01/21 11:29:45;;;;;;;14.53;4.30;;;1.70;99.90;;;;;;5040473;28;20207;-65
2022/01/21 11:32:12;;;;;;;8.80;3.23;;;1.70;99.90;;;;;;5038208;28;20196;-63
2022/01/21 11:34:42;;;;;;;10.40;3.67;;;1.90;99.90;;;;;;5044043;28;20242;-65
2022/01/21 11:37:08;;;;;;;8.60;4.13;;;1.90;99.90;;;;;;5048034;28;20365;-65
2022/01/21 11:39:36;;;;;;;12.93;4.27;;;1.80;99.90;;;;;;5040774;28;20561;-64
2022/01/21 11:42:06;;;;;;;10.47;3.73;;;1.80;99.90;;;;;;5036313;28;20554;-65
2022/01/21 11:44:37;;;;;;;6.47;3.83;;;1.80;99.90;;;;;;5042345;28;20239;-64
2022/01/21 11:49:43;;;;;;;9.33;3.50;;;1.80;99.90;;;;;;5037781;28;20530;-68
2022/01/21 11:52:20;;;;;;;10.23;3.80;;;1.90;99.90;;;;;;5037622;28;20176;-65
2022/01/21 11:54:47;;;;;;;9.20;3.30;;;2.20;99.90;;;;;;5036010;28;20638;-65
2022/01/21 11:57:15;;;;;;;11.77;3.93;;;2.20;99.90;;;;;;5040149;28;20188;-66
2022/01/21 12:00:02;;;;;;;8.40;3.53;;;2.10;99.90;;;;;;5041586;28;20390;-64
2022/01/21 12:02:30;;;;;;;9.47;3.83;;;2.30;99.90;;;;;;5035041;28;20184;-66
2022/01/21 12:05:10;;;;;;;6.03;3.30;;;2.40;99.90;;;;;;5038421;28;20193;-65
2022/01/21 12:07:44;;;;;;;7.53;3.30;;;2.40;99.90;;;;;;5035193;28;20195;-68
2022/01/21 12:10:29;;;;;;;6.90;2.97;;;2.40;99.90;;;;;;5040144;28;20176;-68
2022/01/21 12:12:58;;;;;;;8.10;3.47;;;2.20;99.90;;;;;;5032029;28;20188;-64
2022/01/21 12:18:20;;;;;;;10.67;3.63;;;2.20;99.90;;;;;;5037875;28;20525;-66
2022/01/21 12:20:47;;;;;;;9.33;3.30;;;2.10;99.90;;;;;;5041307;28;20212;-65
2022/01/21 12:23:21;;;;;;;10.97;3.27;;;1.90;99.90;;;;;;5036237;28;20208;-65
2022/01/21 12:26:09;;;;;;;12.17;3.73;;;1.90;99.90;;;;;;5040324;28;20192;-65
2022/01/21 12:28:36;;;;;;;7.63;3.03;;;2.00;99.90;;;;;;5035441;28;20211;-65
2022/01/21 12:31:02;;;;;;;11.83;2.60;;;2.10;99.90;;;;;;5036258;28;20192;-63
2022/01/21 12:36:17;;;;;;;6.77;3.07;;;2.30;99.90;;;;;;5039648;28;20286;-65
2022/01/21 12:41:18;;;;;;;5.23;2.40;;;2.30;99.90;;;;;;5044797;28;20207;-70
2022/01/21 12:43:51;;;;;;;6.03;3.27;;;2.30;99.90;;;;;;5041012;28;20275;-66
2022/01/21 12:46:42;;;;;;;10.37;2.83;;;2.60;99.90;;;;;;5042728;28;20203;-64
2022/01/21 12:49:29;;;;;;;9.60;2.73;;;2.60;99.90;;;;;;5042016;28;20255;-65
2022/01/21 12:57:26;;;;;;;5.27;1.63;;;2.70;99.90;;;;;;5042438;28;20187;-66
2022/01/21 12:59:58;;;;;;;10.13;2.37;;;2.60;99.90;;;;;;5042348;28;20227;-66
2022/01/21 13:02:26;;;;;;;8.30;2.47;;;2.60;99.90;;;;;;5036854;28;20207;-66
2022/01/21 13:05:19;;;;;;;6.33;1.83;;;2.50;99.90;;;;;;5044399;28;20168;-68
2022/01/21 13:07:51;;;;;;;10.73;3.10;;;2.30;99.90;;;;;;5040548;28;20211;-67
2022/01/21 13:10:28;;;;;;;4.03;2.07;;;2.30;99.90;;;;;;5039207;28;20833;-65
2022/01/21 13:15:42;;;;;;;11.87;3.93;;;2.40;99.90;;;;;;5041703;28;20180;-65
2022/01/21 13:18:11;;;;;;;6.57;3.63;;;2.60;99.90;;;;;;5043961;28;20329;-65
2022/01/21 13:20:40;;;;;;;4.93;2.30;;;2.80;99.90;;;;;;5042333;28;20311;-65
2022/01/21 13:23:09;;;;;;;4.03;1.80;;;2.80;99.90;;;;;;5040263;28;20682;-64
2022/01/21 13:26:10;;;;;;;4.13;2.00;;;2.80;99.90;;;;;;5041543;28;20184;-65
2022/01/21 13:29:03;;;;;;;4.67;1.57;;;2.80;99.90;;;;;;5041947;28;20173;-67
2022/01/21 13:31:34;;;;;;;5.93;1.93;;;2.80;99.90;;;;;;5044707;28;20274;-65
2022/01/21 13:34:16;;;;;;;8.07;1.67;;;2.90;99.90;;;;;;5030808;28;20185;-66
2022/01/21 13:36:43;;;;;;;2.57;1.50;;;2.90;99.90;;;;;;5036410;28;20630;-70
2022/01/21 13:39:13;;;;;;;5.33;1.70;;;2.80;99.90;;;;;;5041203;28;20265;-67
2022/01/21 13:42:06;;;;;;;6.47;1.70;;;2.90;99.90;;;;;;5039022;28;20248;-66
2022/01/21 13:44:54;;;;;;;6.20;1.63;;;2.90;99.90;;;;;;5036015;28;20176;-64
2022/01/21 13:47:26;;;;;;;3.87;1.60;;;2.90;99.90;;;;;;5034265;28;20198;-65
2022/01/21 13:49:52;;;;;;;5.60;1.43;;;2.90;99.90;;;;;;5036805;28;20188;-64
2022/01/21 13:52:18;;;;;;;1.63;1.40;;;2.80;99.90;;;;;;5035390;28;20245;-65
2022/01/21 13:54:48;;;;;;;4.63;1.53;;;2.80;99.90;;;;;;5038535;28;20267;-64
2022/01/21 13:57:14;;;;;;;6.93;2.33;;;2.90;99.90;;;;;;5035178;28;20193;-65
2022/01/21 13:59:45;;;;;;;4.37;1.57;;;2.80;99.90;;;;;;5036438;28;20204;-72
2022/01/21 14:02:13;;;;;;;4.43;1.60;;;2.90;99.90;;;;;;5041686;28;20200;-65